ROKT51 KPIE-KLAL
Flight info
| Callsign | ROKT51 |
|---|---|
| Flight time | 0h 14m |
| Altitude | 15000 |
| Route | VFR |
| Aircraft | HAWK/L-V/N |
Departure
| Time | 2026-04-26 22:55 |
|---|---|
| Airport | St. Petersburg Clearwater International Airport (KPIE) |
Arrival
| Time | 2026-04-26 23:09 |
|---|---|
| Airport | Lakeland Linder International Airport (KLAL) |
| Time | Latitude | Longitude | Altitude | Speed | Heading |
|---|---|---|---|---|---|
| 2026-04-26 22:35 | 27.91536 | -82.69299 | 21 ft | 0 kts | 7° |
| 2026-04-26 22:50 | 27.91539 | -82.69299 | 21 ft | 3 kts | 6° |
| 2026-04-26 22:50 | 27.91544 | -82.69273 | 21 ft | 9 kts | 120° |
| 2026-04-26 22:50 | 27.91471 | -82.69202 | 21 ft | 20 kts | 153° |
| 2026-04-26 22:51 | 27.91403 | -82.69065 | 20 ft | 24 kts | 171° |
| 2026-04-26 22:51 | 27.91211 | -82.69039 | 20 ft | 31 kts | 173° |
| 2026-04-26 22:51 | 27.91061 | -82.69012 | 20 ft | 35 kts | 167° |
| 2026-04-26 22:51 | 27.90720 | -82.68946 | 20 ft | 31 kts | 166° |
| 2026-04-26 22:52 | 27.90574 | -82.68922 | 20 ft | 34 kts | 174° |
| 2026-04-26 22:52 | 27.90500 | -82.68909 | 20 ft | 2 kts | 170° |
| 2026-04-26 22:52 | 27.90403 | -82.68891 | 20 ft | 20 kts | 171° |
| 2026-04-26 22:52 | 27.90290 | -82.68872 | 20 ft | 29 kts | 172° |
| 2026-04-26 22:53 | 27.90059 | -82.68864 | 17 ft | 39 kts | 182° |
| 2026-04-26 22:53 | 27.89798 | -82.68832 | 20 ft | 36 kts | 168° |
| 2026-04-26 22:53 | 27.89693 | -82.68772 | 19 ft | 18 kts | 90° |
| 2026-04-26 22:53 | 27.89701 | -82.68715 | 18 ft | 1 kts | 80° |
| 2026-04-26 22:54 | 27.89711 | -82.68661 | 16 ft | 14 kts | 77° |
| 2026-04-26 22:54 | 27.89806 | -82.68632 | 16 ft | 25 kts | 352° |
| 2026-04-26 22:54 | 27.90226 | -82.68712 | 19 ft | 104 kts | 351° |
| 2026-04-26 22:54 | 27.91215 | -82.68887 | 156 ft | 178 kts | 350° |
| 2026-04-26 22:55 | 27.92658 | -82.69104 | 533 ft | 237 kts | 349° |
| 2026-04-26 22:55 | 27.94318 | -82.69491 | 1045 ft | 248 kts | 344° |
| 2026-04-26 22:55 | 27.95987 | -82.69972 | 1511 ft | 244 kts | 342° |
| 2026-04-26 22:55 | 27.97168 | -82.71075 | 2166 ft | 229 kts | 301° |
| 2026-04-26 22:56 | 27.97498 | -82.72826 | 2492 ft | 225 kts | 255° |
| 2026-04-26 22:56 | 27.96455 | -82.74072 | 3025 ft | 237 kts | 210° |
| 2026-04-26 22:56 | 27.94882 | -82.74901 | 3113 ft | 256 kts | 206° |
| 2026-04-26 22:56 | 27.93189 | -82.75171 | 3891 ft | 243 kts | 171° |
| 2026-04-26 22:57 | 27.91528 | -82.74530 | 3971 ft | 268 kts | 162° |
| 2026-04-26 22:57 | 27.90287 | -82.73358 | 4819 ft | 226 kts | 68° |
| 2026-04-26 22:57 | 27.90538 | -82.71487 | 3809 ft | 278 kts | 82° |
| 2026-04-26 22:57 | 27.90806 | -82.69200 | 4096 ft | 298 kts | 81° |
| 2026-04-26 22:58 | 27.91114 | -82.66866 | 4396 ft | 301 kts | 79° |
| 2026-04-26 22:58 | 27.92200 | -82.65678 | 4809 ft | 234 kts | 347° |
| 2026-04-26 22:58 | 27.93965 | -82.65598 | 5022 ft | 279 kts | 5° |
| 2026-04-26 22:58 | 27.95904 | -82.65440 | 5758 ft | 275 kts | 0° |
| 2026-04-26 22:59 | 27.97934 | -82.65235 | 5551 ft | 303 kts | 5° |
| 2026-04-26 22:59 | 28.00002 | -82.64991 | 5626 ft | 297 kts | 3° |
| 2026-04-26 22:59 | 28.01958 | -82.64788 | 5502 ft | 263 kts | 2° |
| 2026-04-26 22:59 | 28.03672 | -82.64404 | 5522 ft | 235 kts | 36° |
| 2026-04-26 23:00 | 28.03994 | -82.62761 | 5248 ft | 234 kts | 96° |
| 2026-04-26 23:00 | 28.03778 | -82.60872 | 4985 ft | 259 kts | 97° |
| 2026-04-26 23:00 | 28.03500 | -82.58641 | 4989 ft | 318 kts | 99° |
| 2026-04-26 23:00 | 28.03054 | -82.55941 | 5378 ft | 361 kts | 99° |
| 2026-04-26 23:01 | 28.02635 | -82.53163 | 6717 ft | 364 kts | 93° |
| 2026-04-26 23:01 | 28.02465 | -82.50172 | 6965 ft | 400 kts | 91° |
| 2026-04-26 23:01 | 28.02268 | -82.46744 | 5670 ft | 475 kts | 94° |
| 2026-04-26 23:01 | 28.02015 | -82.43008 | 6255 ft | 480 kts | 93° |
| 2026-04-26 23:02 | 28.01636 | -82.39082 | 5500 ft | 489 kts | 120° |
| 2026-04-26 23:02 | 27.99578 | -82.35819 | 3795 ft | 536 kts | 120° |
| 2026-04-26 23:02 | 27.98542 | -82.31764 | 3808 ft | 535 kts | 94° |
| 2026-04-26 23:02 | 27.98492 | -82.27515 | 3456 ft | 540 kts | 90° |
| 2026-04-26 23:03 | 27.98390 | -82.23346 | 3692 ft | 532 kts | 91° |
| 2026-04-26 23:03 | 27.98538 | -82.19111 | 3317 ft | 541 kts | 84° |
| 2026-04-26 23:03 | 27.98896 | -82.14921 | 3480 ft | 535 kts | 83° |
| 2026-04-26 23:03 | 27.99273 | -82.10839 | 4362 ft | 519 kts | 83° |
| 2026-04-26 23:04 | 27.99265 | -82.06792 | 3325 ft | 515 kts | 104° |
| 2026-04-26 23:04 | 27.98925 | -82.02424 | 346 ft | 577 kts | 89° |
| 2026-04-26 23:04 | 27.97873 | -82.00799 | 3083 ft | 353 kts | 264° |
| 2026-04-26 23:04 | 27.99804 | -82.02468 | 780 ft | 435 kts | 318° |
| 2026-04-26 23:05 | 28.00401 | -82.04936 | 2996 ft | 341 kts | 224° |
| 2026-04-26 23:05 | 27.98396 | -82.05368 | 3455 ft | 273 kts | 144° |
| 2026-04-26 23:05 | 27.98805 | -82.03359 | 393 ft | 376 kts | 73° |
| 2026-04-26 23:05 | 27.98656 | -82.00196 | 544 ft | 415 kts | 102° |
| 2026-04-26 23:06 | 27.98126 | -81.97066 | 1136 ft | 390 kts | 99° |
| 2026-04-26 23:06 | 27.97697 | -81.94290 | 1561 ft | 330 kts | 99° |
| 2026-04-26 23:06 | 27.98281 | -81.92720 | 2441 ft | 210 kts | 328° |
| 2026-04-26 23:06 | 27.98165 | -81.93831 | 1849 ft | 189 kts | 192° |
| 2026-04-26 23:07 | 27.96829 | -81.94055 | 1313 ft | 187 kts | 220° |
| 2026-04-26 23:07 | 27.95740 | -81.93988 | 1372 ft | 186 kts | 103° |
| 2026-04-26 23:07 | 27.96548 | -81.92958 | 1231 ft | 207 kts | 1° |
| 2026-04-26 23:07 | 27.97631 | -81.93712 | 941 ft | 194 kts | 290° |
| 2026-04-26 23:08 | 27.98045 | -81.95016 | 946 ft | 167 kts | 304° |
| 2026-04-26 23:08 | 27.98634 | -81.96186 | 830 ft | 175 kts | 282° |
| 2026-04-26 23:08 | 27.98766 | -81.97514 | 791 ft | 160 kts | 276° |
| 2026-04-26 23:08 | 27.98861 | -81.98761 | 641 ft | 162 kts | 276° |
| 2026-04-26 23:09 | 27.98915 | -82.00054 | 386 ft | 163 kts | 272° |
| 2026-04-26 23:09 | 27.98927 | -82.01208 | 143 ft | 130 kts | 276° |
| 2026-04-26 23:09 | 27.98928 | -82.01916 | 145 ft | 43 kts | 270° |
| 2026-04-26 23:09 | 27.98922 | -82.02240 | 143 ft | 24 kts | 264° |
| 2026-04-26 23:10 | 27.98880 | -82.02297 | 143 ft | 2 kts | 190° |
| 2026-04-26 23:10 | 27.98841 | -82.02296 | 141 ft | 0 kts | 176° |
| 2026-04-26 23:10 | 27.98832 | -82.02296 | 141 ft | 5 kts | 176° |
| 2026-04-26 23:10 | 27.98786 | -82.02294 | 140 ft | 0 kts | 171° |
| 2026-04-26 23:11 | 27.98778 | -82.02293 | 140 ft | 6 kts | 171° |
| 2026-04-26 23:11 | 27.98732 | -82.02257 | 140 ft | 13 kts | 89° |
| 2026-04-26 23:11 | 27.98731 | -82.02115 | 145 ft | 23 kts | 90° |
| 2026-04-26 23:11 | 27.98732 | -82.01904 | 145 ft | 20 kts | 88° |
| 2026-04-26 23:12 | 27.98731 | -82.01776 | 146 ft | 20 kts | 91° |
| 2026-04-26 23:12 | 27.98731 | -82.01633 | 149 ft | 17 kts | 90° |
| 2026-04-26 23:12 | 27.98765 | -82.01553 | 148 ft | 0 kts | 348° |